Aeroporto :
LOGIN :

Iscrizione | Disclaimer

   EN    FR    IT 

 










Sommario :    VFR   VFR Marginale   IFR   IFR Intensivo   IFR Molto Intensivo
Visibilità : 
Base nubi : 
>= 8 km
>= 3000ft
5 / 8 km
1000 / 3000 ft
1500m / 5 km
500 / 1000 ft
800 / 1500m
200 / 500 ft
< 800m
< 200 ft
Simboli :   Temporali  Nebbia  Neve Forte  Precipitazioni Forti  Vento > 20 kt
SIGMETs :   Varie  Temporali  Ghiacco  Turbolenza  Onda orograficha  Ceneri Vulcaniche






- Altitudine del aeroporto : 18 ft


LIPC - Cervia AFB Ravenna

ULTIMO METAR :
  • 240755Z 26009KT 9999 SCT020 SCT030 10/06 Q1007 RMK BKN VIS MIN 9999 WIND THR11 28009KT WIND THR29 27008KT BLU

METARs OBSOLETI :
  • 240655Z 29008KT 9999 BKN020 SCT030 09/06 Q1007 RMK OVC VIS MIN 9999 WIND THR11 29008KT WIND THR29 29008KT WHT
  • 240555Z 28004KT 9999 FEW015 SCT030 07/06 Q1007
  • 240455Z 24005KT 9999 SCT050 06/05 Q1006 RMK BKN SCT070 VIS MIN 9999 WIND THR11 23004KT WIND THR29 25004KT BLU
  • 240355Z 29004KT 9999 SCT050 06/05 Q1006 RMK BKN SCT070 VIS MIN 9999 WIND THR11 28004KT WIND THR29 29004KT BLU

TAF TAF LIPC
Valido dal 24 a 06 ore il 24 a 15 ore UTC


240500Z 2406/2415 28010KT 9999 SCT050
TEMPO 2406/2415 5000 RA BR SCT040 BKN050
PROB40
TEMPO 2409/2415 30015G25KT 3000 TSRA FEW025CB BKN040



MetMap, La meteo Aeronautica in un colpo d'occhio ! - Copyright ORBIFLY Dicembre 2007 - Disclaimer

ORBIFLY MET'MAP TEAM :

Programmazione e sviluppo : Alexandra Zaïnal
Concezione : Baudouin d'Aumeries
Supporto tecnico e logistico : Manuel Goepfert
Aiuto : Marc-Olivier Méhu
Aiuto per la traduzione : Arnaldo La Scala




FONTI E CREDITI :

   NOAA